createdAt,value
2018-12-03T00:01:32.287Z,73.57
2018-12-03T00:04:08.449Z,68.67
2018-12-03T00:06:38.791Z,71.77
2018-12-03T00:09:09.572Z,69.57
2018-12-03T00:11:39.124Z,76.80
2018-12-03T00:14:09.392Z,71.80
2018-12-03T00:16:39.888Z,77.20
2018-12-03T00:19:09.991Z,73.27
2018-12-03T00:21:40.125Z,75.63
2018-12-03T00:24:09.701Z,76.03
2018-12-03T00:26:39.236Z,76.30
2018-12-03T00:29:09.584Z,72.13
2018-12-03T00:31:39.614Z,68.73
2018-12-03T00:34:09.597Z,72.57
2018-12-03T00:36:39.686Z,78.63
2018-12-03T00:39:09.645Z,76.17
2018-12-03T00:41:39.731Z,76.47
2018-12-03T00:44:09.282Z,79.37
2018-12-03T00:46:38.893Z,75.83
2018-12-03T00:49:08.855Z,80.30
2018-12-03T00:51:38.840Z,76.50
2018-12-03T00:54:09.210Z,81.67
2018-12-03T00:56:39.269Z,79.93
2018-12-03T00:59:09.302Z,77.97
2018-12-03T01:01:38.868Z,74.23
2018-12-03T01:04:08.799Z,80.70
2018-12-03T01:06:38.415Z,77.17
2018-12-03T01:09:09.655Z,80.57
2018-12-03T01:11:39.259Z,76.87
2018-12-03T01:14:08.793Z,82.70
2018-12-03T01:16:38.353Z,80.37
2018-12-03T01:19:08.412Z,79.30
2018-12-03T01:21:38.912Z,76.70
2018-12-03T01:24:08.504Z,81.00
2018-12-03T01:26:38.548Z,81.33
2018-12-03T01:29:08.096Z,79.37
2018-12-03T01:31:43.658Z,79.40
2018-12-03T01:34:13.203Z,78.57
2018-12-03T01:36:43.645Z,84.40
2018-12-03T01:39:13.190Z,83.27
2018-12-03T01:41:43.265Z,79.67
2018-12-03T01:44:13.097Z,79.97
2018-12-03T01:46:42.628Z,84.27
2018-12-03T01:49:12.168Z,81.97
2018-12-03T01:51:45.120Z,81.93
2018-12-03T01:54:14.687Z,82.03
2018-12-03T01:56:44.802Z,84.37
2018-12-03T01:59:14.337Z,84.77
2018-12-03T02:01:44.285Z,78.37
2018-12-03T02:04:13.861Z,80.60
2018-12-03T02:06:43.384Z,82.73
2018-12-03T02:09:12.933Z,79.53
2018-12-03T02:11:43.331Z,79.13
2018-12-03T02:14:14.225Z,80.57
2018-12-03T02:16:44.410Z,77.50
2018-12-03T02:19:13.991Z,77.90
2018-12-03T02:21:43.971Z,77.17
2018-12-03T02:24:13.552Z,78.97
2018-12-03T02:26:44.484Z,77.53
2018-12-03T02:29:15.276Z,76.57
2018-12-03T02:31:45.394Z,78.40
2018-12-03T02:34:16.405Z,78.53
2018-12-03T02:36:46.441Z,71.40
2018-12-03T02:39:17.277Z,71.60
2018-12-03T02:41:48.312Z,73.77
2018-12-03T02:44:20.275Z,75.47
2018-12-03T02:46:51.398Z,72.80
2018-12-03T02:49:23.713Z,75.10
2018-12-03T02:51:55.351Z,72.57
2018-12-03T02:54:24.929Z,73.20
2018-12-03T02:56:56.363Z,71.07
2018-12-03T02:59:28.472Z,73.40
2018-12-03T03:01:59.531Z,72.60
2018-12-03T03:04:34.275Z,74.40
2018-12-03T03:07:04.493Z,73.30
2018-12-03T03:09:34.514Z,73.73
2018-12-03T03:12:06.541Z,70.80
2018-12-03T03:14:36.975Z,74.33
2018-12-03T03:17:07.513Z,71.30
2018-12-03T03:19:37.836Z,71.87
2018-12-03T03:22:08.468Z,70.00
2018-12-03T03:24:39.868Z,67.23
2018-12-03T03:27:10.534Z,66.23
2018-12-03T03:29:40.743Z,67.27
2018-12-03T03:32:11.781Z,65.90
2018-12-03T03:34:42.631Z,62.43
2018-12-03T03:37:13.424Z,69.40
2018-12-03T03:39:43.684Z,63.30
2018-12-03T03:42:14.749Z,65.40
2018-12-03T03:44:45.570Z,69.27
2018-12-03T03:47:15.783Z,67.97
2018-12-03T03:49:46.523Z,69.97
2018-12-03T03:52:16.770Z,66.70
2018-12-03T03:54:47.611Z,69.37
2018-12-03T03:57:17.972Z,69.80
2018-12-03T03:59:48.660Z,70.80
2018-12-03T04:02:18.665Z,70.03
2018-12-03T04:04:49.840Z,69.33
2018-12-03T04:07:20.592Z,68.30
2018-12-03T04:09:50.825Z,69.90
2018-12-03T04:12:21.835Z,71.13
2018-12-03T04:14:52.360Z,74.60
2018-12-03T04:17:22.887Z,70.93
2018-12-03T04:19:56.714Z,74.00
2018-12-03T04:22:28.848Z,70.47
2018-12-03T04:25:00.644Z,70.90
2018-12-03T04:27:31.992Z,73.77
2018-12-03T04:30:02.928Z,70.93
2018-12-03T04:32:32.905Z,75.90
2018-12-03T04:35:03.804Z,70.67
2018-12-03T04:37:35.013Z,72.23
2018-12-03T04:40:05.937Z,71.97
2018-12-03T04:42:36.965Z,70.87
2018-12-03T04:45:10.344Z,72.67
2018-12-03T04:47:41.076Z,69.80
2018-12-03T04:50:17.882Z,69.03
2018-12-03T04:52:48.132Z,66.40
2018-12-03T04:55:18.945Z,66.67
2018-12-03T04:57:49.356Z,65.87
2018-12-03T05:00:19.856Z,62.77
2018-12-03T05:02:52.049Z,65.87
2018-12-03T05:05:23.933Z,68.70
2018-12-03T05:07:53.922Z,67.37
2018-12-03T05:10:25.265Z,67.13
2018-12-03T05:12:55.021Z,68.33
2018-12-03T05:15:25.164Z,66.83
2018-12-03T05:17:56.994Z,65.70
2018-12-03T05:20:29.083Z,64.47
2018-12-03T05:23:01.149Z,67.60
2018-12-03T05:25:31.181Z,65.13
2018-12-03T05:28:02.245Z,67.60
2018-12-03T05:30:32.195Z,61.70
2018-12-03T05:33:03.170Z,66.77
2018-12-03T05:35:34.287Z,64.43
2018-12-03T05:38:05.385Z,62.73
2018-12-03T05:40:35.360Z,62.80
2018-12-03T05:43:07.364Z,63.10
2018-12-03T05:45:37.284Z,65.83
2018-12-03T05:48:07.308Z,65.80
2018-12-03T05:50:41.216Z,67.67
2018-12-03T05:53:12.458Z,62.67
2018-12-03T05:55:43.321Z,70.17
2018-12-03T05:58:14.209Z,66.33
2018-12-03T06:00:44.414Z,66.50
2018-12-03T06:03:15.469Z,65.70
2018-12-03T06:05:45.470Z,65.73
2018-12-03T06:08:16.282Z,68.10
2018-12-03T06:10:46.296Z,65.13
2018-12-03T06:13:17.396Z,65.27
2018-12-03T06:15:47.425Z,68.30
2018-12-03T06:18:18.428Z,66.60
2018-12-03T06:20:49.296Z,71.50
2018-12-03T06:23:19.333Z,79.43
2018-12-03T06:25:51.293Z,99.80
2018-12-03T06:28:23.345Z,69.40
2018-12-03T06:30:55.488Z,69.73
2018-12-03T06:33:25.169Z,66.00
2018-12-03T06:35:55.338Z,64.63
2018-12-03T06:38:25.271Z,62.40
2018-12-03T06:40:56.372Z,63.70
2018-12-03T06:43:25.919Z,62.93
2018-12-03T06:45:58.483Z,63.03
2018-12-03T06:48:28.498Z,60.00
2018-12-03T06:50:59.624Z,66.37
2018-12-03T06:53:32.612Z,64.77
2018-12-03T06:56:03.932Z,64.10
2018-12-03T06:58:33.587Z,71.03
2018-12-03T07:01:06.100Z,66.63
2018-12-03T07:03:36.399Z,64.80
2018-12-03T07:06:06.684Z,68.03
2018-12-03T07:08:37.588Z,65.63
2018-12-03T07:11:08.728Z,65.10
2018-12-03T07:13:39.208Z,64.63
2018-12-03T07:16:09.501Z,64.50
2018-12-03T07:18:39.582Z,63.33
2018-12-03T07:21:10.759Z,65.60
2018-12-03T07:23:41.674Z,64.93
2018-12-03T07:26:11.538Z,66.30
2018-12-03T07:28:42.588Z,64.53
2018-12-03T07:31:12.727Z,63.37
2018-12-03T07:33:43.608Z,66.83
2018-12-03T07:36:14.388Z,64.07
2018-12-03T07:38:44.695Z,65.30
2018-12-03T07:41:15.647Z,61.50
2018-12-03T07:43:45.759Z,62.60
2018-12-03T07:46:16.763Z,62.10
2018-12-03T07:48:50.543Z,60.90
2018-12-03T07:51:20.912Z,62.93
2018-12-03T07:53:52.785Z,64.07
2018-12-03T07:56:23.014Z,61.80
2018-12-03T07:58:52.801Z,62.60
2018-12-03T08:01:24.777Z,63.87
2018-12-03T08:03:54.869Z,64.03
2018-12-03T08:06:25.253Z,62.20
2018-12-03T08:08:55.816Z,67.20
2018-12-03T08:11:25.616Z,62.50
2018-12-03T08:13:55.189Z,58.33
2018-12-03T08:16:25.564Z,62.57
2018-12-03T08:18:56.016Z,57.60
2018-12-03T08:21:25.692Z,61.23
2018-12-03T08:24:03.031Z,61.90
2018-12-03T08:26:33.105Z,59.77
2018-12-03T08:29:04.124Z,61.17
2018-12-03T08:31:34.993Z,62.60
2018-12-03T08:34:05.181Z,59.70
2018-12-03T08:36:36.043Z,61.30
2018-12-03T08:39:09.844Z,60.13
2018-12-03T08:41:40.246Z,57.90
2018-12-03T08:44:10.221Z,56.37
2018-12-03T08:47:17.573Z,58.27
2018-12-03T08:49:48.204Z,55.27
2018-12-03T08:52:19.217Z,54.67
2018-12-03T08:54:49.789Z,56.50
2018-12-03T08:57:20.070Z,54.57
2018-12-03T08:59:51.056Z,51.93
2018-12-03T09:02:21.106Z,55.10
2018-12-03T09:04:53.218Z,55.27
2018-12-03T09:07:23.429Z,56.57
2018-12-03T09:09:53.805Z,53.30
2018-12-03T09:12:24.143Z,52.07
2018-12-03T09:14:55.293Z,53.30
2018-12-03T09:17:25.903Z,53.83
2018-12-03T09:19:56.526Z,52.97
2018-12-03T09:22:32.157Z,54.20
2018-12-03T09:25:06.785Z,53.47
2018-12-03T09:27:38.168Z,53.80
2018-12-03T09:30:08.406Z,54.17
2018-12-03T09:32:39.506Z,54.80
2018-12-03T09:35:10.055Z,54.10
2018-12-03T09:37:40.366Z,52.87
2018-12-03T09:40:42.034Z,51.97
2018-12-03T09:43:14.292Z,52.77
2018-12-03T09:45:44.349Z,52.60
2018-12-03T09:48:15.404Z,52.70
2018-12-03T09:50:45.516Z,51.70
2018-12-03T09:53:16.513Z,54.07
2018-12-03T09:55:46.548Z,54.37
2018-12-03T09:58:22.060Z,53.77
2018-12-03T10:00:54.245Z,56.43
2018-12-03T10:03:27.276Z,54.70
2018-12-03T10:06:01.437Z,56.90
2018-12-03T10:08:32.624Z,54.30
2018-12-03T10:11:03.673Z,56.70
2018-12-03T10:13:35.553Z,53.90
2018-12-03T10:16:06.642Z,55.23
2018-12-03T10:18:36.345Z,55.87
2018-12-03T10:21:07.648Z,54.07
2018-12-03T10:23:38.447Z,57.20
2018-12-03T10:26:11.155Z,55.00
2018-12-03T10:28:42.517Z,55.77
2018-12-03T10:31:14.675Z,55.17
2018-12-03T10:33:44.298Z,54.67
2018-12-03T10:36:14.675Z,55.90
2018-12-03T10:38:48.025Z,55.57
2018-12-03T10:44:05.105Z,54.90
2018-12-03T10:46:35.483Z,52.47
2018-12-03T10:49:08.884Z,52.77
2018-12-03T10:51:39.781Z,55.10
2018-12-03T10:54:09.583Z,51.97
2018-12-03T10:56:40.662Z,54.70
2018-12-03T10:59:11.471Z,54.87
2018-12-03T11:01:50.806Z,55.53
2018-12-03T11:04:27.048Z,54.67
2018-12-03T11:06:57.148Z,54.37
2018-12-03T11:09:33.129Z,55.67
2018-12-03T11:11:59.837Z,56.60
2018-12-03T11:14:32.981Z,55.70
2018-12-03T11:17:04.055Z,57.50
2018-12-03T11:19:34.705Z,58.20
2018-12-03T11:22:04.701Z,59.77
2018-12-03T11:24:38.829Z,57.50
2018-12-03T11:27:08.660Z,58.63
2018-12-03T11:29:40.731Z,60.10
2018-12-03T11:32:10.985Z,60.17
2018-12-03T11:34:42.865Z,58.10
2018-12-03T11:37:16.662Z,60.40
2018-12-03T11:39:54.695Z,58.77
2018-12-03T11:42:28.160Z,61.67
2018-12-03T11:44:58.854Z,57.73
2018-12-03T11:47:28.933Z,58.77
2018-12-03T11:50:00.779Z,60.30
2018-12-03T11:52:31.795Z,58.47
2018-12-03T11:55:01.890Z,58.10
2018-12-03T11:57:31.864Z,56.90
2018-12-03T12:00:03.149Z,60.60
2018-12-03T12:02:33.173Z,56.90
2018-12-03T12:05:05.837Z,58.00
2018-12-03T12:07:42.323Z,58.50
2018-12-03T12:10:12.173Z,59.10
2018-12-03T12:12:41.931Z,59.70
2018-12-03T12:15:13.455Z,58.63
2018-12-03T12:17:45.991Z,58.63
2018-12-03T12:20:16.001Z,58.43
2018-12-03T12:22:47.131Z,58.63
2018-12-03T12:25:19.287Z,58.37
2018-12-03T12:27:56.767Z,62.03
2018-12-03T12:30:26.433Z,60.00
2018-12-03T12:32:56.231Z,58.90
2018-12-03T12:35:25.937Z,58.93
2018-12-03T12:37:56.966Z,59.63
2018-12-03T12:40:26.568Z,62.47
2018-12-03T12:42:58.078Z,62.43
2018-12-03T12:45:35.822Z,66.13
2018-12-03T12:48:06.275Z,67.23
2018-12-03T12:50:36.378Z,66.10
2018-12-03T12:53:07.476Z,64.13
2018-12-03T12:55:38.341Z,61.90
2018-12-03T12:58:09.282Z,63.80
2018-12-03T13:00:40.422Z,64.47
2018-12-03T13:03:10.364Z,62.77
2018-12-03T13:05:41.150Z,66.50
2018-12-03T13:08:11.632Z,59.63
2018-12-03T13:10:42.349Z,61.57
2018-12-03T13:13:13.285Z,62.77
2018-12-03T13:15:45.336Z,62.47
2018-12-03T13:18:18.191Z,63.77
2018-12-03T13:20:51.924Z,63.83
2018-12-03T13:23:24.404Z,65.23
2018-12-03T13:25:55.445Z,64.87
2018-12-03T13:28:25.439Z,63.80
2018-12-03T13:30:55.353Z,64.70
2018-12-03T13:33:25.907Z,64.00
2018-12-03T13:35:57.489Z,63.40
2018-12-03T13:38:29.367Z,64.50
2018-12-03T13:41:01.404Z,69.17
2018-12-03T13:43:32.000Z,64.90
2018-12-03T13:46:02.411Z,63.73
2018-12-03T13:48:32.648Z,65.63
2018-12-03T13:51:04.036Z,67.80
2018-12-03T13:53:34.693Z,65.80
2018-12-03T13:56:05.669Z,67.67
2018-12-03T13:58:36.186Z,64.47
2018-12-03T14:01:06.581Z,66.57
2018-12-03T14:03:38.757Z,65.17
2018-12-03T14:06:25.717Z,63.70
2018-12-03T14:11:41.225Z,61.50
2018-12-03T14:15:28.048Z,63.37
2018-12-03T14:18:14.405Z,63.80
2018-12-03T14:20:48.100Z,66.87
2018-12-03T14:23:30.102Z,63.00
2018-12-03T14:26:03.478Z,63.67
2018-12-03T14:28:34.657Z,65.60
2018-12-03T14:31:05.782Z,63.00
2018-12-03T14:33:36.820Z,65.67
2018-12-03T14:36:07.137Z,69.20
2018-12-03T14:38:37.610Z,67.73
2018-12-03T14:41:07.797Z,67.40
2018-12-03T14:43:38.763Z,61.80
2018-12-03T14:46:08.789Z,65.17
2018-12-03T14:48:39.721Z,66.13
2018-12-03T14:51:10.926Z,61.43
2018-12-03T14:53:44.544Z,65.13
2018-12-03T14:56:14.843Z,60.73
2018-12-03T14:58:44.683Z,66.53
2018-12-03T15:01:15.616Z,66.63
2018-12-03T15:03:46.775Z,68.20
2018-12-03T15:06:16.814Z,70.03
2018-12-03T15:08:47.824Z,70.37
2018-12-03T15:11:21.598Z,68.73
2018-12-03T15:13:57.894Z,71.87
2018-12-03T15:16:29.930Z,71.00
2018-12-03T15:19:02.704Z,71.27
2018-12-03T15:21:32.929Z,74.40
2018-12-03T15:24:04.013Z,72.90
2018-12-03T15:26:35.888Z,77.73
2018-12-03T15:29:06.781Z,76.80
2018-12-03T15:31:38.906Z,76.83
2018-12-03T15:34:09.924Z,75.17
2018-12-03T15:36:40.958Z,74.90
2018-12-03T15:39:11.989Z,82.83
2018-12-03T15:41:44.080Z,79.00
2018-12-03T15:44:14.776Z,80.47
2018-12-03T15:46:44.930Z,73.77
2018-12-03T15:49:16.888Z,75.27
2018-12-03T15:51:46.983Z,83.30
2018-12-03T15:54:20.377Z,80.70
2018-12-03T15:56:50.704Z,80.90
2018-12-03T15:59:21.589Z,78.63
2018-12-03T16:01:52.016Z,80.40
2018-12-03T16:04:22.844Z,79.47
2018-12-03T16:06:52.980Z,81.70
2018-12-03T16:09:23.070Z,80.20
2018-12-03T16:11:54.812Z,80.23
2018-12-03T16:14:25.584Z,81.27
2018-12-03T16:16:56.187Z,82.50
2018-12-03T16:19:26.357Z,78.97
2018-12-03T16:21:56.739Z,80.30
2018-12-03T16:24:26.355Z,83.70
2018-12-03T16:26:57.028Z,83.67
2018-12-03T16:29:26.777Z,84.00
2018-12-03T16:31:57.214Z,82.60
2018-12-03T16:34:26.785Z,88.37
2018-12-03T16:36:59.078Z,83.33
2018-12-03T16:39:30.123Z,82.57
2018-12-03T16:42:00.173Z,83.87
2018-12-03T16:44:30.261Z,84.43
2018-12-03T16:47:01.252Z,108.30
2018-12-03T16:49:32.404Z,109.33
2018-12-03T16:52:02.302Z,153.00
2018-12-03T16:54:32.403Z,103.33
2018-12-03T16:57:03.273Z,109.80
2018-12-03T16:59:35.310Z,100.27
2018-12-03T17:02:05.358Z,118.17
2018-12-03T17:04:35.286Z,123.90
2018-12-03T17:07:05.377Z,105.90
2018-12-03T17:09:35.359Z,101.53
2018-12-03T17:12:06.516Z,94.23
2018-12-03T17:14:39.328Z,91.70
2018-12-03T17:17:10.271Z,92.00
2018-12-03T17:19:41.512Z,90.77
2018-12-03T17:22:32.712Z,97.07
2018-12-03T17:25:03.744Z,93.07
2018-12-03T17:27:37.227Z,97.07
2018-12-03T17:30:08.710Z,97.13
2018-12-03T17:32:41.495Z,95.70
2018-12-03T17:35:12.452Z,95.40
2018-12-03T17:37:42.490Z,96.80
2018-12-03T17:40:14.305Z,96.77
2018-12-03T17:42:43.999Z,96.67
2018-12-03T17:45:14.684Z,94.63
2018-12-03T17:47:45.499Z,93.93
2018-12-03T17:50:16.527Z,99.80
2018-12-03T17:52:47.675Z,99.47
2018-12-03T17:55:17.728Z,99.50
2018-12-03T17:57:48.528Z,95.10
2018-12-03T18:00:18.458Z,99.27
2018-12-03T18:02:48.614Z,102.13
2018-12-03T18:05:19.592Z,98.47
2018-12-03T18:07:49.520Z,98.17
2018-12-03T18:10:20.703Z,99.87
2018-12-03T18:12:50.665Z,101.33
2018-12-03T18:15:21.539Z,102.27
2018-12-03T18:17:53.817Z,99.77
2018-12-03T18:20:25.705Z,106.50
2018-12-03T18:22:56.167Z,104.70
2018-12-03T18:25:26.678Z,107.50
2018-12-03T18:27:56.780Z,102.53
2018-12-03T18:30:26.545Z,101.90
2018-12-03T18:32:57.820Z,104.70
2018-12-03T18:35:28.576Z,104.87
2018-12-03T18:37:59.104Z,106.83
2018-12-03T18:40:29.708Z,104.77
2018-12-03T18:43:00.154Z,100.20
2018-12-03T18:45:30.732Z,106.43
2018-12-03T18:48:01.385Z,101.13
2018-12-03T18:50:34.888Z,106.90
2018-12-03T18:53:27.765Z,103.87
2018-12-03T18:55:59.889Z,99.43
2018-12-03T18:59:10.951Z,109.63
2018-12-03T19:01:41.976Z,104.17
2018-12-03T19:04:13.283Z,105.27
2018-12-03T19:06:44.874Z,97.83
2018-12-03T19:09:17.031Z,100.90
2018-12-03T19:11:47.368Z,100.90
2018-12-03T19:14:24.943Z,100.90
2018-12-03T19:16:58.136Z,96.60
2018-12-03T19:19:29.829Z,99.50
2018-12-03T19:22:01.042Z,95.17
2018-12-03T19:24:33.069Z,97.90
2018-12-03T19:27:03.441Z,95.47
2018-12-03T19:29:38.764Z,97.57
2018-12-03T19:32:09.841Z,95.57
2018-12-03T19:34:41.782Z,102.90
2018-12-03T19:37:13.886Z,100.30
2018-12-03T19:39:44.309Z,96.90
2018-12-03T19:42:14.847Z,100.27
2018-12-03T19:44:44.848Z,95.40
2018-12-03T19:47:15.967Z,90.70
2018-12-03T19:49:46.447Z,90.53
2018-12-03T19:52:17.235Z,92.97
2018-12-03T19:54:47.923Z,94.10
2018-12-03T19:57:22.766Z,92.77
2018-12-03T20:00:00.894Z,92.37
2018-12-03T20:02:30.109Z,95.13
2018-12-03T20:05:06.085Z,88.77
2018-12-03T20:07:35.702Z,93.80
2018-12-03T20:10:07.367Z,97.03
2018-12-03T20:12:38.362Z,92.80
2018-12-03T20:15:08.832Z,91.00
2018-12-03T20:17:40.656Z,90.27
2018-12-03T20:20:19.580Z,92.97
2018-12-03T20:23:01.277Z,90.53
2018-12-03T20:25:40.131Z,91.60
2018-12-03T20:28:14.604Z,89.43
2018-12-03T20:34:03.709Z,93.17
2018-12-03T20:36:51.481Z,87.17
2018-12-03T20:41:33.048Z,91.97
2018-12-03T20:45:18.952Z,87.00
2018-12-03T20:47:53.102Z,87.80
2018-12-03T20:50:44.165Z,87.77
2018-12-03T20:53:18.406Z,89.80
2018-12-03T20:55:48.903Z,91.97
2018-12-03T20:58:25.919Z,87.80
2018-12-03T21:00:55.758Z,89.40
2018-12-03T21:03:27.697Z,89.60
2018-12-03T21:06:05.589Z,86.37
2018-12-03T21:08:36.318Z,85.00
2018-12-03T21:11:06.567Z,90.13
2018-12-03T21:13:36.504Z,87.10
2018-12-03T21:16:08.038Z,85.63
2018-12-03T21:18:38.669Z,83.00
2018-12-03T21:21:10.302Z,85.20
2018-12-03T21:23:39.887Z,77.23
2018-12-03T21:26:10.378Z,82.87
2018-12-03T21:28:41.485Z,84.97
2018-12-03T21:31:11.703Z,78.17
2018-12-03T21:33:42.330Z,88.13
2018-12-03T21:36:13.385Z,87.47
2018-12-03T21:38:43.779Z,84.50
2018-12-03T21:41:15.239Z,85.13
2018-12-03T21:43:50.778Z,85.43
2018-12-03T21:46:21.452Z,87.03
2018-12-03T21:48:52.565Z,84.30
2018-12-03T21:51:25.542Z,81.97
2018-12-03T21:53:56.613Z,85.77
2018-12-03T21:56:26.737Z,82.83
2018-12-03T21:58:58.602Z,83.77
2018-12-03T22:01:30.621Z,84.20
2018-12-03T22:04:00.688Z,82.20
2018-12-03T22:06:30.721Z,74.37
2018-12-03T22:09:01.708Z,77.83
2018-12-03T22:11:32.003Z,76.97
2018-12-03T22:14:02.793Z,75.13
2018-12-03T22:16:38.895Z,74.97
2018-12-03T22:19:11.848Z,76.97
2018-12-03T22:21:45.471Z,76.23
2018-12-03T22:24:20.634Z,80.20
2018-12-03T22:26:54.016Z,83.30
2018-12-03T22:29:30.059Z,79.37
2018-12-03T22:32:05.606Z,80.27
2018-12-03T22:34:36.951Z,85.17
2018-12-03T22:37:07.685Z,84.03
2018-12-03T22:39:39.393Z,84.70
2018-12-03T22:42:11.869Z,81.60
2018-12-03T22:44:46.919Z,81.93
2018-12-03T22:47:17.847Z,82.63
2018-12-03T22:49:48.776Z,80.37
2018-12-03T22:52:20.725Z,78.53
2018-12-03T22:54:52.396Z,83.10
2018-12-03T22:57:22.916Z,82.17
2018-12-03T22:59:53.830Z,82.03
2018-12-03T23:02:24.693Z,84.90
2018-12-03T23:04:55.048Z,80.73
2018-12-03T23:07:25.980Z,82.77
2018-12-03T23:09:55.941Z,80.70
2018-12-03T23:12:26.909Z,83.63
2018-12-03T23:14:57.074Z,79.97
2018-12-03T23:17:26.732Z,78.60
2018-12-03T23:19:56.941Z,78.80
2018-12-03T23:22:27.656Z,78.37
2018-12-03T23:25:05.245Z,77.90
2018-12-03T23:27:36.133Z,76.37
2018-12-03T23:30:07.581Z,71.40
2018-12-03T23:32:38.987Z,72.40
2018-12-03T23:35:10.766Z,73.97
2018-12-03T23:37:41.322Z,74.80
2018-12-03T23:40:12.204Z,73.80
2018-12-03T23:42:42.689Z,71.70
2018-12-03T23:45:13.125Z,72.50
2018-12-03T23:47:43.721Z,72.03
2018-12-03T23:50:14.584Z,69.37
2018-12-03T23:52:45.160Z,69.77
2018-12-03T23:55:15.904Z,70.47
2018-12-03T23:57:46.521Z,69.40
